Big Bear Station Historical Data
Daily Summary for January 14, 2019 Units:  English    Metric   Both
Next Day »
Daily Weekly Monthly Yearly Custom
  High: Low: Average:
Temperature: 36.1 °F 21.0 °F 29.3 °F
Dew Point: 33.5 °F 20.0 °F 27.7 °F
Humidity: 97% 78% 94%
Wind Speed: 9.4mph 0.0mph 0.6mph
Wind Gust: -999.0mph - -
Wind- - SSW
Pressure: 23.43 in 23.32 in -
Precipitation: 0.79 in    
Historical Graphs
 
 
Tabular Data for January 14, 2019
Time Temperature Dew Point Pressure Wind Wind Speed Wind Gust Humidity Rainfall Rate (Hourly)
00:02 23.7 °F 23.0 °F 23.42 in Calm   -999.0 mph 97% 0.00 in
00:17 23.2 °F 22.5 °F 23.42 in Calm   -999.0 mph 97% 0.00 in
00:32 22.6 °F 21.6 °F 23.42 in Calm   -999.0 mph 96% 0.00 in
00:48 22.6 °F 21.6 °F 23.41 in Calm   -999.0 mph 96% 0.00 in
01:03 22.3 °F 21.3 °F 23.41 in Calm   -999.0 mph 96% 0.00 in
01:18 22.5 °F 21.5 °F 23.41 in Calm   -999.0 mph 96% 0.00 in
01:33 22.3 °F 21.3 °F 23.42 in Calm   -999.0 mph 96% 0.00 in
01:48 22.1 °F 21.1 °F 23.42 in Calm   -999.0 mph 96% 0.00 in
02:04 21.9 °F 20.9 °F 23.42 in Calm   -999.0 mph 96% 0.00 in
02:19 21.9 °F 20.9 °F 23.43 in Calm   -999.0 mph 96% 0.00 in
02:34 21.7 °F 20.7 °F 23.42 in Calm   -999.0 mph 96% 0.00 in
02:49 21.6 °F 20.6 °F 23.42 in Calm   -999.0 mph 96% 0.00 in
03:05 21.0 °F 20.0 °F 23.42 in Calm   -999.0 mph 96% 0.00 in
03:20 21.2 °F 20.2 °F 23.42 in Calm   -999.0 mph 96% 0.00 in
03:35 21.2 °F 20.2 °F 23.41 in Calm   -999.0 mph 96% 0.00 in
03:50 21.0 °F 20.0 °F 23.40 in Calm   -999.0 mph 96% 0.00 in
04:05 21.0 °F 20.0 °F 23.40 in Calm   -999.0 mph 96% 0.00 in
04:21 21.2 °F 20.2 °F 23.40 in Calm   -999.0 mph 96% 0.00 in
04:36 21.4 °F 20.4 °F 23.40 in Calm   -999.0 mph 96% 0.00 in
04:51 21.4 °F 20.4 °F 23.40 in Calm   -999.0 mph 96% 0.00 in
05:06 21.6 °F 20.6 °F 23.39 in Calm   -999.0 mph 96% 0.00 in
05:21 21.4 °F 20.4 °F 23.40 in Calm   -999.0 mph 96% 0.00 in
05:37 21.4 °F 20.4 °F 23.39 in Calm   -999.0 mph 96% 0.00 in
05:52 21.6 °F 20.6 °F 23.40 in Calm   -999.0 mph 96% 0.00 in
06:07 21.7 °F 20.7 °F 23.40 in Calm   -999.0 mph 96% 0.00 in
06:22 21.9 °F 20.9 °F 23.39 in Calm   -999.0 mph 96% 0.00 in
06:38 22.1 °F 21.1 °F 23.40 in Calm   -999.0 mph 96% 0.00 in
06:53 22.3 °F 21.3 °F 23.39 in Calm   -999.0 mph 96% 0.00 in
07:08 22.6 °F 21.6 °F 23.40 in Calm   -999.0 mph 96% 0.00 in
07:23 23.2 °F 22.2 °F 23.40 in Calm   -999.0 mph 96% 0.00 in
07:38 23.5 °F 22.5 °F 23.38 in Calm   -999.0 mph 96% 0.00 in
07:54 24.3 °F 23.3 °F 23.40 in Calm   -999.0 mph 96% 0.00 in
08:09 25.5 °F 24.5 °F 23.39 in Calm   -999.0 mph 96% 0.00 in
08:24 26.8 °F 25.0 °F 23.40 in Calm   -999.0 mph 93% 0.00 in
08:39 27.7 °F 25.9 °F 23.40 in Calm   -999.0 mph 93% 0.00 in
08:54 28.8 °F 26.8 °F 23.41 in Calm   -999.0 mph 92% 0.00 in
09:10 29.3 °F 27.5 °F 23.41 in Calm   -999.0 mph 93% 0.00 in
09:25 30.7 °F 27.8 °F 23.41 in Calm   -999.0 mph 89% 0.00 in
09:40 32.9 °F 29.5 °F 23.42 in Calm   -999.0 mph 87% 0.00 in
09:55 32.9 °F 30.3 °F 23.42 in Calm   -999.0 mph 90% 0.00 in
10:10 33.8 °F 29.8 °F 23.42 in Calm   -999.0 mph 85% 0.00 in
10:26 36.1 °F 29.9 °F 23.41 in Calm   -999.0 mph 78% 0.00 in
10:41 35.6 °F 29.7 °F 23.40 in NNW 2.7 mph -999.0 mph 79% 0.00 in
10:56 34.9 °F 30.3 °F 23.40 in Calm   -999.0 mph 83% 0.00 in
11:11 33.4 °F 29.7 °F 23.40 in Calm   -999.0 mph 86% 0.00 in
11:26 32.7 °F 29.8 °F 23.39 in Calm   -999.0 mph 89% 0.00 in
11:42 33.3 °F 30.7 °F 23.38 in Calm   -999.0 mph 90% 0.00 in
11:57 33.4 °F 30.8 °F 23.38 in Calm   -999.0 mph 90% 0.00 in
12:12 34.5 °F 31.6 °F 23.37 in Calm   -999.0 mph 89% 0.00 in
12:27 34.0 °F 31.1 °F 23.36 in Calm   -999.0 mph 89% 0.00 in
12:43 34.0 °F 31.1 °F 23.35 in South 1.1 mph -999.0 mph 89% 0.00 in
12:58 35.1 °F 32.2 °F 23.34 in Calm   -999.0 mph 89% 0.00 in
13:13 35.6 °F 32.1 °F 23.33 in Calm   -999.0 mph 87% 0.00 in
13:28 35.4 °F 31.9 °F 23.32 in Calm   -999.0 mph 87% 0.00 in
13:43 34.7 °F 31.5 °F 23.33 in Calm   -999.0 mph 88% 0.00 in
13:59 34.3 °F 31.4 °F 23.34 in Calm   -999.0 mph 89% 0.00 in
14:15 33.6 °F 30.7 °F 23.34 in Calm   -999.0 mph 89% 0.00 in
14:30 33.3 °F 31.0 °F 23.32 in Calm   -999.0 mph 91% 0.00 in
14:45 32.5 °F 30.7 °F 23.34 in Calm   -999.0 mph 93% 0.00 in
15:00 32.7 °F 30.9 °F 23.33 in Calm   -999.0 mph 93% 0.00 in
15:15 32.7 °F 30.9 °F 23.33 in Calm   -999.0 mph 93% 0.00 in
15:31 32.7 °F 30.6 °F 23.34 in Calm   -999.0 mph 92% 0.00 in
15:46 32.5 °F 30.4 °F 23.34 in Calm   -999.0 mph 92% 0.00 in
16:01 32.2 °F 30.4 °F 23.34 in Calm   -999.0 mph 93% 0.00 in
16:16 32.0 °F 30.5 °F 23.34 in Calm   -999.0 mph 94% 0.00 in
16:31 32.4 °F 30.9 °F 23.34 in Calm   -999.0 mph 94% 0.00 in
16:46 32.4 °F 30.9 °F 23.34 in Calm   -999.0 mph 94% 0.00 in
17:02 32.4 °F 31.1 °F 23.34 in Calm   -999.0 mph 95% 0.00 in
17:17 32.4 °F 31.1 °F 23.34 in Calm   -999.0 mph 95% 0.00 in
17:32 32.4 °F 31.4 °F 23.35 in Calm   -999.0 mph 96% 0.00 in
17:47 32.7 °F 31.7 °F 23.35 in Calm   -999.0 mph 96% 0.00 in
18:03 32.7 °F 31.7 °F 23.35 in Calm   -999.0 mph 96% 0.00 in
18:18 32.7 °F 31.7 °F 23.35 in Calm   -999.0 mph 96% 0.00 in
18:33 32.9 °F 31.9 °F 23.35 in Calm   -999.0 mph 96% 0.00 in
18:48 33.4 °F 32.6 °F 23.35 in Calm   -999.0 mph 97% 0.00 in
19:03 33.6 °F 32.8 °F 23.35 in Calm   -999.0 mph 97% 0.00 in
19:19 33.8 °F 33.0 °F 23.35 in Calm   -999.0 mph 97% 0.00 in
19:34 33.8 °F 33.0 °F 23.35 in Calm   -999.0 mph 97% 0.00 in
19:51 34.0 °F 33.2 °F 23.35 in Calm   -999.0 mph 97% 0.00 in
20:06 34.0 °F 33.2 °F 23.35 in Calm   -999.0 mph 97% 0.00 in
20:21 34.0 °F 33.2 °F 23.35 in SE 2.2 mph -999.0 mph 97% 0.00 in
20:38 34.2 °F 33.4 °F 23.35 in WNW 7.3 mph -999.0 mph 97% 0.00 in
20:55 34.2 °F 33.4 °F 23.35 in ESE 4.7 mph -999.0 mph 97% 0.00 in
21:11 34.3 °F 33.5 °F 23.36 in East 9.4 mph -999.0 mph 97% 0.00 in
21:29 34.3 °F 33.5 °F 23.36 in North 4.2 mph -999.0 mph 97% 0.00 in
21:44 34.0 °F 33.2 °F 23.36 in SSE 3.7 mph -999.0 mph 97% 0.00 in
22:01 34.0 °F 33.2 °F 23.37 in South 2.2 mph -999.0 mph 97% 0.00 in
22:17 33.8 °F 33.0 °F 23.37 in SSE 1.7 mph -999.0 mph 97% 0.00 in
22:33 34.0 °F 33.2 °F 23.37 in ESE 6.3 mph -999.0 mph 97% 0.00 in
22:49 34.0 °F 33.0 °F 23.37 in SSW 5.3 mph -999.0 mph 96% 0.00 in
23:06 33.4 °F 32.4 °F 23.37 in Calm   -999.0 mph 96% 0.00 in
23:21 33.1 °F 32.1 °F 23.37 in NNW 1.7 mph -999.0 mph 96% 0.00 in
23:36 33.4 °F 32.6 °F 23.37 in NNW 4.7 mph -999.0 mph 97% 0.00 in
23:52 33.1 °F 32.3 °F 23.37 in Calm   -999.0 mph 97% 0.00 in
Big Bear CA Weather